createdAt,value
2019-05-26T00:00:21.509Z,86.70
2019-05-26T00:02:53.775Z,86.70
2019-05-26T00:05:26.666Z,86.70
2019-05-26T00:07:59.093Z,86.80
2019-05-26T00:10:31.058Z,86.90
2019-05-26T00:13:02.226Z,87.00
2019-05-26T00:15:40.635Z,87.10
2019-05-26T00:18:12.775Z,87.20
2019-05-26T00:20:45.698Z,87.20
2019-05-26T00:23:18.939Z,87.40
2019-05-26T00:25:49.788Z,87.40
2019-05-26T00:28:24.786Z,87.50
2019-05-26T00:30:57.261Z,87.60
2019-05-26T00:33:29.675Z,87.50
2019-05-26T00:36:00.839Z,87.60
2019-05-26T00:38:33.077Z,87.60
2019-05-26T00:41:03.841Z,87.50
2019-05-26T00:43:34.123Z,87.60
2019-05-26T00:46:04.929Z,87.60
2019-05-26T00:48:37.402Z,87.60
2019-05-26T00:51:10.327Z,87.60
2019-05-26T00:53:41.407Z,87.50
2019-05-26T00:56:11.328Z,87.50
2019-05-26T00:58:42.399Z,87.60
2019-05-26T01:01:13.444Z,87.70
2019-05-26T01:03:45.389Z,87.70
2019-05-26T01:06:18.205Z,87.70
2019-05-26T01:08:49.168Z,87.80
2019-05-26T01:11:22.138Z,87.80
2019-05-26T01:13:54.516Z,88.00
2019-05-26T01:16:26.652Z,88.00
2019-05-26T01:18:57.926Z,88.10
2019-05-26T01:21:30.102Z,88.10
2019-05-26T01:24:01.150Z,88.10
2019-05-26T01:26:32.218Z,88.20
2019-05-26T01:29:03.098Z,88.10
2019-05-26T01:31:34.565Z,88.20
2019-05-26T01:34:06.079Z,88.20
2019-05-26T01:36:39.082Z,88.40
2019-05-26T01:39:10.844Z,88.30
2019-05-26T01:41:41.986Z,88.40
2019-05-26T01:44:13.643Z,88.60
2019-05-26T01:46:47.241Z,88.70
2019-05-26T01:49:17.156Z,88.70
2019-05-26T01:51:48.528Z,88.80
2019-05-26T01:54:19.972Z,88.50
2019-05-26T01:56:52.770Z,88.60
2019-05-26T01:59:22.805Z,88.50
2019-05-26T02:01:58.818Z,88.70
2019-05-26T02:04:33.733Z,88.60
2019-05-26T02:07:04.739Z,88.50
2019-05-26T02:09:37.131Z,88.60
2019-05-26T02:12:07.405Z,88.60
2019-05-26T02:14:38.554Z,88.60
2019-05-26T02:17:09.557Z,88.60
2019-05-26T02:19:42.010Z,88.50
2019-05-26T02:22:13.110Z,88.70
2019-05-26T02:24:44.033Z,88.70
2019-05-26T02:27:16.689Z,88.90
2019-05-26T02:29:48.946Z,88.80
2019-05-26T02:32:20.061Z,88.90
2019-05-26T02:34:54.365Z,88.90
2019-05-26T02:37:27.001Z,89.00
2019-05-26T02:39:56.937Z,89.10
2019-05-26T02:42:28.387Z,89.20
2019-05-26T02:44:59.692Z,89.50
2019-05-26T02:47:31.783Z,89.60
2019-05-26T02:50:06.221Z,89.10
2019-05-26T02:52:39.972Z,89.10
2019-05-26T02:55:11.085Z,89.00
2019-05-26T02:57:42.108Z,88.70
2019-05-26T03:00:13.665Z,88.80
2019-05-26T03:02:43.911Z,88.80
2019-05-26T03:05:16.277Z,88.80
2019-05-26T03:07:46.189Z,89.10
2019-05-26T03:10:18.887Z,89.60
2019-05-26T03:12:51.070Z,89.70
2019-05-26T03:15:25.855Z,89.30
2019-05-26T03:18:00.996Z,89.40
2019-05-26T03:20:34.789Z,89.40
2019-05-26T03:23:07.011Z,89.40
2019-05-26T03:25:38.540Z,89.60
2019-05-26T03:28:11.297Z,89.60
2019-05-26T03:30:41.205Z,89.60
2019-05-26T03:33:12.086Z,89.80
2019-05-26T03:35:44.279Z,90.10
2019-05-26T03:38:15.735Z,90.30
2019-05-26T03:40:46.997Z,90.70
2019-05-26T03:43:18.188Z,91.00
2019-05-26T03:46:08.825Z,91.20
2019-05-26T03:48:41.121Z,91.50
2019-05-26T03:51:12.427Z,91.70
2019-05-26T03:53:44.862Z,91.80
2019-05-26T03:56:16.334Z,92.20
2019-05-26T03:58:48.927Z,92.10
2019-05-26T04:01:22.482Z,92.20
2019-05-26T04:03:55.181Z,92.20
2019-05-26T04:06:26.074Z,92.10
2019-05-26T04:08:59.165Z,91.90
2019-05-26T04:11:28.841Z,91.70
2019-05-26T04:14:02.442Z,91.70
2019-05-26T04:16:35.430Z,91.60
2019-05-26T04:19:09.654Z,91.70
2019-05-26T04:21:42.457Z,91.80
2019-05-26T04:24:12.548Z,91.80
2019-05-26T04:26:44.077Z,91.70
2019-05-26T04:29:17.102Z,91.20
2019-05-26T04:31:46.886Z,90.90
2019-05-26T04:34:18.993Z,90.70
2019-05-26T04:36:51.565Z,90.70
2019-05-26T04:39:24.084Z,90.50
2019-05-26T04:41:57.821Z,90.50
2019-05-26T04:44:30.097Z,89.80
2019-05-26T04:47:03.436Z,89.70
2019-05-26T04:49:37.425Z,89.00
2019-05-26T04:52:05.070Z,87.80
2019-05-26T04:54:36.133Z,88.20
2019-05-26T04:57:07.208Z,88.30
2019-05-26T04:59:38.475Z,87.90
2019-05-26T05:02:09.527Z,86.90
2019-05-26T05:04:42.213Z,86.70
2019-05-26T05:07:13.490Z,86.30
2019-05-26T05:09:45.287Z,85.30
2019-05-26T05:12:16.825Z,84.90
2019-05-26T05:14:48.190Z,83.90
2019-05-26T05:17:19.256Z,82.90
2019-05-26T05:19:50.458Z,82.90
2019-05-26T05:22:23.224Z,82.90
2019-05-26T05:24:55.559Z,83.00
2019-05-26T05:27:30.348Z,81.90
2019-05-26T05:30:09.402Z,80.80
2019-05-26T05:32:44.080Z,80.00
2019-05-26T05:35:33.369Z,80.10
2019-05-26T05:38:05.615Z,78.40
2019-05-26T05:40:40.791Z,77.90
2019-05-26T05:43:11.961Z,76.50
2019-05-26T05:45:45.536Z,74.80
2019-05-26T05:48:16.468Z,75.30
2019-05-26T05:50:50.660Z,75.40
2019-05-26T05:53:22.251Z,74.50
2019-05-26T05:55:55.299Z,72.90
2019-05-26T05:58:26.715Z,73.00
2019-05-26T06:01:01.067Z,70.30
2019-05-26T06:03:32.070Z,71.50
2019-05-26T06:06:02.985Z,68.30
2019-05-26T06:08:36.355Z,71.30
2019-05-26T06:11:16.494Z,71.50
2019-05-26T06:13:42.340Z,72.00
2019-05-26T06:16:15.543Z,70.90
2019-05-26T06:18:47.915Z,67.90
2019-05-26T06:21:21.834Z,69.40
2019-05-26T06:23:51.151Z,70.70
2019-05-26T06:26:23.377Z,71.50
2019-05-26T06:28:55.325Z,70.50
2019-05-26T06:31:29.562Z,70.90
2019-05-26T06:33:59.707Z,70.20
2019-05-26T06:36:29.709Z,70.00
2019-05-26T06:39:04.222Z,69.50
2019-05-26T06:41:35.457Z,67.40
2019-05-26T06:44:09.332Z,67.50
2019-05-26T06:46:42.651Z,68.20
2019-05-26T06:49:13.719Z,66.60
2019-05-26T06:51:44.866Z,65.20
2019-05-26T06:54:19.003Z,65.20
2019-05-26T06:56:51.609Z,67.40
2019-05-26T06:59:23.887Z,67.50
2019-05-26T07:01:56.187Z,66.30
2019-05-26T07:04:27.556Z,65.30
2019-05-26T07:07:02.064Z,66.50
2019-05-26T07:09:34.569Z,65.00
2019-05-26T07:12:07.828Z,66.10
2019-05-26T07:14:38.776Z,65.50
2019-05-26T07:17:11.223Z,65.60
2019-05-26T07:19:42.832Z,66.00
2019-05-26T07:22:17.516Z,67.00
2019-05-26T07:24:50.759Z,65.00
2019-05-26T07:27:20.844Z,64.50
2019-05-26T07:29:50.944Z,65.10
2019-05-26T07:32:24.710Z,63.80
2019-05-26T07:34:59.320Z,63.70
2019-05-26T07:37:31.735Z,65.10
2019-05-26T07:40:07.300Z,65.20
2019-05-26T07:45:16.643Z,67.00
2019-05-26T07:47:47.799Z,66.90
2019-05-26T07:50:21.138Z,65.40
2019-05-26T07:52:54.953Z,64.60
2019-05-26T07:55:26.312Z,64.40
2019-05-26T07:57:58.789Z,63.00
2019-05-26T08:00:29.954Z,64.80
2019-05-26T08:03:02.560Z,64.40
2019-05-26T08:05:34.909Z,65.20
2019-05-26T08:08:12.783Z,64.70
2019-05-26T08:10:37.136Z,62.00
2019-05-26T08:13:07.003Z,60.70
2019-05-26T08:15:42.018Z,64.20
2019-05-26T08:18:13.961Z,62.70
2019-05-26T08:20:45.171Z,64.50
2019-05-26T08:23:16.302Z,66.00
2019-05-26T08:25:47.909Z,65.80
2019-05-26T08:28:18.901Z,64.60
2019-05-26T08:30:49.858Z,62.00
2019-05-26T08:33:19.708Z,64.60
2019-05-26T08:35:51.035Z,64.40
2019-05-26T08:38:21.868Z,63.90
2019-05-26T08:40:54.465Z,62.80
2019-05-26T08:43:26.825Z,61.90
2019-05-26T08:45:58.029Z,60.80
2019-05-26T08:48:30.776Z,59.70
2019-05-26T08:51:01.911Z,58.10
2019-05-26T08:53:35.142Z,61.40
2019-05-26T08:56:08.866Z,60.40
2019-05-26T08:58:39.856Z,63.60
2019-05-26T09:01:13.678Z,61.40
2019-05-26T09:03:46.237Z,59.20
2019-05-26T09:06:21.317Z,60.30
2019-05-26T09:08:54.185Z,59.00
2019-05-26T09:11:28.026Z,57.40
2019-05-26T09:13:57.897Z,57.60
2019-05-26T09:16:30.274Z,57.60
2019-05-26T09:19:03.213Z,57.80
2019-05-26T09:21:38.356Z,60.50
2019-05-26T09:24:09.819Z,59.80
2019-05-26T09:26:41.802Z,58.90
2019-05-26T09:29:12.777Z,58.40
2019-05-26T09:31:46.862Z,56.50
2019-05-26T09:34:20.337Z,56.40
2019-05-26T09:36:53.120Z,59.00
2019-05-26T09:39:25.831Z,59.90
2019-05-26T09:41:58.650Z,57.00
2019-05-26T09:44:28.775Z,60.80
2019-05-26T09:47:01.144Z,61.50
2019-05-26T09:49:32.082Z,58.20
2019-05-26T09:52:04.411Z,59.10
2019-05-26T09:54:40.270Z,60.50
2019-05-26T09:57:13.103Z,61.10
2019-05-26T09:59:44.208Z,59.80
2019-05-26T10:02:15.877Z,59.80
2019-05-26T10:04:45.841Z,58.50
2019-05-26T10:07:16.842Z,58.10
2019-05-26T10:09:48.755Z,58.50
2019-05-26T10:12:18.860Z,57.70
2019-05-26T10:14:53.214Z,56.80
2019-05-26T10:17:24.401Z,57.60
2019-05-26T10:19:57.763Z,56.60
2019-05-26T10:22:29.716Z,56.80
2019-05-26T10:25:04.588Z,56.60
2019-05-26T10:27:37.140Z,56.10
2019-05-26T10:30:14.695Z,55.10
2019-05-26T10:32:45.839Z,54.10
2019-05-26T10:35:17.444Z,54.20
2019-05-26T10:37:50.446Z,54.70
2019-05-26T10:40:26.014Z,55.00
2019-05-26T10:42:57.875Z,54.90
2019-05-26T10:45:34.157Z,56.10
2019-05-26T10:48:03.744Z,54.90
2019-05-26T10:50:35.045Z,56.90
2019-05-26T10:53:07.540Z,56.50
2019-05-26T10:55:39.171Z,57.80
2019-05-26T10:58:11.787Z,57.60
2019-05-26T11:00:44.712Z,58.50
2019-05-26T11:03:15.783Z,55.90
2019-05-26T11:05:49.528Z,55.50
2019-05-26T11:08:22.110Z,57.00
2019-05-26T11:10:56.233Z,56.70
2019-05-26T11:13:27.892Z,56.80
2019-05-26T11:15:57.811Z,53.80
2019-05-26T11:18:29.284Z,55.80
2019-05-26T11:21:19.650Z,56.30
2019-05-26T11:23:51.213Z,55.90
2019-05-26T11:26:24.850Z,55.90
2019-05-26T11:28:56.610Z,54.00
2019-05-26T11:31:27.777Z,55.60
2019-05-26T11:34:00.671Z,56.70
2019-05-26T11:36:30.626Z,55.50
2019-05-26T11:39:05.856Z,55.50
2019-05-26T11:41:37.558Z,55.70
2019-05-26T11:44:17.635Z,56.70
2019-05-26T11:46:39.739Z,55.70
2019-05-26T11:49:11.028Z,56.90
2019-05-26T11:51:43.497Z,56.00
2019-05-26T11:54:15.934Z,55.60
2019-05-26T11:56:48.406Z,57.10
2019-05-26T11:59:23.236Z,56.60
2019-05-26T12:01:57.784Z,54.40
2019-05-26T12:04:29.332Z,55.50
2019-05-26T12:07:04.626Z,58.10
2019-05-26T12:09:36.048Z,56.80
2019-05-26T12:12:08.816Z,55.30
2019-05-26T12:14:40.402Z,54.10
2019-05-26T12:17:14.532Z,55.90
2019-05-26T12:19:49.935Z,55.30
2019-05-26T12:22:22.399Z,57.60
2019-05-26T12:24:55.479Z,57.40
2019-05-26T12:27:25.511Z,58.20
2019-05-26T12:29:55.651Z,58.90
2019-05-26T12:32:45.957Z,59.30
2019-05-26T12:35:18.223Z,59.00
2019-05-26T12:37:51.646Z,60.70
2019-05-26T12:40:24.534Z,59.00
2019-05-26T12:42:55.714Z,60.70
2019-05-26T12:45:28.533Z,60.30
2019-05-26T12:50:32.665Z,56.60
2019-05-26T12:53:02.976Z,58.40
2019-05-26T12:55:34.359Z,59.50
2019-05-26T12:58:09.262Z,58.20
2019-05-26T13:00:48.985Z,59.20
2019-05-26T13:03:17.359Z,58.40
2019-05-26T13:05:50.084Z,58.80
2019-05-26T13:08:21.978Z,58.70
2019-05-26T13:13:26.330Z,59.20
2019-05-26T13:16:00.049Z,59.80
2019-05-26T13:18:33.745Z,58.50
2019-05-26T13:21:08.828Z,59.70
2019-05-26T13:23:41.291Z,60.70
2019-05-26T13:26:13.710Z,60.50
2019-05-26T13:28:46.793Z,61.10
2019-05-26T13:31:17.286Z,60.50
2019-05-26T13:33:48.474Z,60.80
2019-05-26T13:36:20.876Z,59.70
2019-05-26T13:38:52.047Z,59.40
2019-05-26T13:41:23.585Z,61.00
2019-05-26T13:43:55.661Z,59.10
2019-05-26T13:46:29.917Z,58.10
2019-05-26T13:49:02.604Z,57.90
2019-05-26T13:51:34.529Z,58.60
2019-05-26T13:54:06.908Z,59.60
2019-05-26T13:56:37.394Z,59.70
2019-05-26T13:59:12.641Z,59.90
2019-05-26T14:01:45.273Z,60.40
2019-05-26T14:04:16.954Z,57.60
2019-05-26T14:06:48.687Z,56.90
2019-05-26T14:09:19.928Z,59.60
2019-05-26T14:11:52.359Z,58.10
2019-05-26T14:14:24.676Z,59.30
2019-05-26T14:16:57.109Z,58.70
2019-05-26T14:22:01.399Z,58.60
2019-05-26T14:24:32.387Z,56.70
2019-05-26T14:27:05.104Z,58.90
2019-05-26T14:29:36.460Z,59.00
2019-05-26T14:32:08.745Z,58.50
2019-05-26T14:34:40.281Z,58.20
2019-05-26T14:37:10.555Z,57.60
2019-05-26T14:39:41.858Z,59.40
2019-05-26T14:42:13.923Z,57.60
2019-05-26T14:44:46.657Z,58.30
2019-05-26T14:47:16.628Z,58.40
2019-05-26T14:49:50.927Z,58.60
2019-05-26T14:52:23.306Z,58.80
2019-05-26T14:54:56.806Z,58.40
2019-05-26T14:57:31.027Z,58.80
2019-05-26T15:00:02.004Z,58.10
2019-05-26T15:02:34.326Z,59.00
2019-05-26T15:05:08.150Z,59.40
2019-05-26T15:07:41.216Z,58.70
2019-05-26T15:10:16.569Z,59.80
2019-05-26T15:12:47.802Z,59.20
2019-05-26T15:15:20.246Z,57.90
2019-05-26T15:17:51.417Z,59.60
2019-05-26T15:20:21.523Z,59.00
2019-05-26T15:22:53.191Z,60.00
2019-05-26T15:25:26.496Z,59.50
2019-05-26T15:27:57.788Z,60.20
2019-05-26T15:30:30.152Z,57.40
2019-05-26T15:33:03.436Z,58.40
2019-05-26T15:35:35.194Z,58.60
2019-05-26T15:38:06.250Z,58.30
2019-05-26T15:40:40.013Z,57.40
2019-05-26T15:43:13.049Z,58.00
2019-05-26T15:45:46.253Z,58.70
2019-05-26T15:48:18.960Z,61.40
2019-05-26T15:50:50.073Z,59.20
2019-05-26T15:53:21.634Z,60.50
2019-05-26T15:55:51.781Z,60.40
2019-05-26T15:58:26.446Z,59.40
2019-05-26T16:00:59.371Z,59.70
2019-05-26T16:03:30.555Z,57.90
2019-05-26T16:06:02.108Z,59.20
2019-05-26T16:08:37.165Z,58.20
2019-05-26T16:11:08.119Z,58.30
2019-05-26T16:13:38.173Z,58.80
2019-05-26T16:16:10.343Z,59.60
2019-05-26T16:18:41.800Z,59.00
2019-05-26T16:21:26.948Z,59.30
2019-05-26T16:23:49.106Z,59.70
2019-05-26T16:26:19.073Z,58.60
2019-05-26T16:28:52.632Z,58.80
2019-05-26T16:31:24.106Z,59.40
2019-05-26T16:33:55.582Z,58.90
2019-05-26T16:36:26.554Z,59.80
2019-05-26T16:38:57.968Z,60.40
2019-05-26T16:41:30.347Z,60.00
2019-05-26T16:44:02.973Z,60.60
2019-05-26T16:46:35.499Z,61.20
2019-05-26T16:49:06.810Z,61.30
2019-05-26T16:51:37.983Z,60.70
2019-05-26T16:54:09.669Z,61.20
2019-05-26T16:56:42.046Z,62.20
2019-05-26T16:59:13.068Z,61.10
2019-05-26T17:01:45.607Z,61.90
2019-05-26T17:04:18.022Z,62.30
2019-05-26T17:06:49.279Z,61.30
2019-05-26T17:09:22.349Z,62.20
2019-05-26T17:11:54.194Z,60.90
2019-05-26T17:14:24.513Z,61.40
2019-05-26T17:17:13.448Z,61.50
2019-05-26T17:19:30.509Z,61.50
2019-05-26T17:22:02.167Z,61.80
2019-05-26T17:24:33.512Z,62.20
2019-05-26T17:27:07.810Z,62.70
2019-05-26T17:29:40.489Z,62.60
2019-05-26T17:32:13.107Z,63.60
2019-05-26T17:34:43.461Z,63.50
2019-05-26T17:37:14.327Z,64.20
2019-05-26T17:39:48.262Z,64.10
2019-05-26T17:42:23.547Z,64.30
2019-05-26T17:44:55.765Z,64.80
2019-05-26T17:47:30.733Z,64.70
2019-05-26T17:50:03.235Z,64.30
2019-05-26T17:52:36.136Z,65.30
2019-05-26T17:55:12.166Z,65.30
2019-05-26T17:57:43.089Z,65.20
2019-05-26T18:00:16.067Z,65.60
2019-05-26T18:02:47.151Z,65.90
2019-05-26T18:05:18.538Z,66.30
2019-05-26T18:07:51.512Z,66.50
2019-05-26T18:10:24.009Z,67.00
2019-05-26T18:12:54.761Z,67.10
2019-05-26T18:15:28.810Z,67.20
2019-05-26T18:18:01.258Z,67.40
2019-05-26T18:20:33.571Z,67.50
2019-05-26T18:23:04.706Z,67.70
2019-05-26T18:25:39.400Z,67.70
2019-05-26T18:28:10.466Z,68.00
2019-05-26T18:31:02.051Z,68.10
2019-05-26T18:33:34.632Z,68.50
2019-05-26T18:36:05.575Z,68.50
2019-05-26T18:38:36.406Z,68.90
2019-05-26T18:41:08.062Z,69.00
2019-05-26T18:43:38.060Z,69.20
2019-05-26T18:46:09.571Z,68.90
2019-05-26T18:48:41.895Z,69.60
2019-05-26T18:51:12.939Z,69.80
2019-05-26T18:53:45.483Z,70.80
2019-05-26T18:56:16.910Z,71.70
2019-05-26T18:58:47.895Z,72.60
2019-05-26T19:01:18.822Z,72.00
2019-05-26T19:03:49.747Z,72.40
2019-05-26T19:06:22.389Z,72.90
2019-05-26T19:08:53.171Z,73.30
2019-05-26T19:11:24.185Z,73.20
2019-05-26T19:13:57.499Z,72.80
2019-05-26T19:16:28.263Z,73.10
2019-05-26T19:18:58.133Z,73.10
2019-05-26T19:21:32.408Z,73.40
2019-05-26T19:24:07.227Z,73.50
2019-05-26T19:26:40.094Z,73.60
2019-05-26T19:29:10.062Z,73.90
2019-05-26T19:31:43.878Z,73.80
2019-05-26T19:34:14.872Z,74.00
2019-05-26T19:36:46.145Z,74.50
2019-05-26T19:39:16.129Z,74.80
2019-05-26T19:41:48.759Z,74.80
2019-05-26T19:46:53.535Z,76.40
2019-05-26T19:49:25.644Z,76.50
2019-05-26T19:51:59.991Z,76.70
2019-05-26T19:54:30.041Z,76.90
2019-05-26T19:57:01.041Z,77.00
2019-05-26T19:59:31.941Z,77.30
2019-05-26T20:02:17.245Z,77.90
2019-05-26T20:04:37.109Z,78.20
2019-05-26T20:07:10.377Z,78.10
2019-05-26T20:09:41.688Z,78.30
2019-05-26T20:12:12.682Z,78.20
2019-05-26T20:14:44.820Z,78.40
2019-05-26T20:17:15.054Z,78.50
2019-05-26T20:19:46.185Z,78.60
2019-05-26T20:22:17.393Z,78.90
2019-05-26T20:24:48.900Z,79.20
2019-05-26T20:27:21.516Z,79.40
2019-05-26T20:29:53.836Z,79.20
2019-05-26T20:32:25.300Z,79.70
2019-05-26T20:34:58.307Z,79.80
2019-05-26T20:37:30.776Z,79.50
2019-05-26T20:40:00.701Z,79.60
2019-05-26T20:42:32.188Z,79.70
2019-05-26T20:45:03.467Z,79.90
2019-05-26T20:47:38.629Z,80.00
2019-05-26T20:50:09.956Z,80.10
2019-05-26T20:52:40.762Z,80.30
2019-05-26T20:55:12.961Z,80.30
2019-05-26T20:57:44.123Z,80.40
2019-05-26T21:00:17.490Z,80.60
2019-05-26T21:02:49.840Z,80.90
2019-05-26T21:05:21.763Z,81.00
2019-05-26T21:07:54.110Z,81.20
2019-05-26T21:10:24.972Z,81.50
2019-05-26T21:13:15.148Z,81.70
2019-05-26T21:15:48.361Z,81.90
2019-05-26T21:18:19.432Z,81.90
2019-05-26T21:20:51.041Z,81.90
2019-05-26T21:23:24.109Z,81.60
2019-05-26T21:25:56.499Z,81.70
2019-05-26T21:28:28.726Z,82.00
2019-05-26T21:31:01.302Z,82.00
2019-05-26T21:33:31.066Z,82.20
2019-05-26T21:36:01.042Z,82.30
2019-05-26T21:38:34.189Z,82.40
2019-05-26T21:41:05.133Z,82.40
2019-05-26T21:43:37.944Z,82.50
2019-05-26T21:46:07.841Z,82.60
2019-05-26T21:48:39.102Z,82.50
2019-05-26T21:51:11.284Z,82.60
2019-05-26T21:53:43.968Z,82.60
2019-05-26T21:56:13.983Z,82.70
2019-05-26T21:58:43.890Z,82.90
2019-05-26T22:01:13.195Z,83.00
2019-05-26T22:03:43.530Z,83.20
2019-05-26T22:06:13.371Z,83.00
2019-05-26T22:08:45.427Z,83.10
2019-05-26T22:11:17.757Z,83.20
2019-05-26T22:13:52.080Z,83.40
2019-05-26T22:16:23.427Z,83.50
2019-05-26T22:18:54.858Z,83.50
2019-05-26T22:21:28.626Z,83.50
2019-05-26T22:23:59.853Z,83.40
2019-05-26T22:26:31.287Z,83.40
2019-05-26T22:29:02.269Z,83.40
2019-05-26T22:31:34.906Z,84.10
2019-05-26T22:34:05.834Z,84.70
2019-05-26T22:36:38.315Z,84.70
2019-05-26T22:39:10.064Z,84.90
2019-05-26T22:41:42.231Z,85.00
2019-05-26T22:44:17.908Z,85.40
2019-05-26T22:46:48.008Z,85.50
2019-05-26T22:49:19.538Z,85.80
2019-05-26T22:51:49.616Z,85.80
2019-05-26T22:54:22.036Z,85.80
2019-05-26T22:56:53.062Z,85.60
2019-05-26T22:59:23.015Z,85.60
2019-05-26T23:01:52.977Z,85.50
2019-05-26T23:04:22.755Z,85.40
2019-05-26T23:06:53.409Z,85.50
2019-05-26T23:09:22.666Z,85.20
2019-05-26T23:11:55.025Z,85.20
2019-05-26T23:14:27.453Z,85.00
2019-05-26T23:16:58.402Z,85.00
2019-05-26T23:19:29.643Z,84.80
2019-05-26T23:22:00.097Z,84.80
2019-05-26T23:24:31.066Z,84.90
2019-05-26T23:27:00.130Z,85.20
2019-05-26T23:29:32.825Z,85.90
2019-05-26T23:32:07.623Z,85.50
2019-05-26T23:34:42.728Z,85.40
2019-05-26T23:37:15.624Z,85.40
2019-05-26T23:39:46.546Z,85.80
2019-05-26T23:42:17.850Z,85.70
2019-05-26T23:44:49.772Z,85.30
2019-05-26T23:47:28.448Z,86.00
2019-05-26T23:49:59.602Z,85.80
2019-05-26T23:52:29.519Z,85.80
2019-05-26T23:55:00.498Z,85.80
2019-05-26T23:57:31.362Z,85.70
